createdAt,value
2023-04-14T00:01:38.680Z,2.00
2023-04-14T00:04:05.596Z,4.50
2023-04-14T00:06:32.936Z,4.25
2023-04-14T00:08:59.889Z,2.42
2023-04-14T00:11:27.336Z,3.33
2023-04-14T00:13:55.980Z,4.38
2023-04-14T00:16:22.699Z,2.42
2023-04-14T00:18:49.291Z,4.20
2023-04-14T00:21:16.298Z,3.42
2023-04-14T00:23:42.893Z,4.72
2023-04-14T00:26:09.480Z,5.80
2023-04-14T00:28:36.161Z,4.30
2023-04-14T00:31:02.889Z,3.13
2023-04-14T00:33:29.531Z,4.00
2023-04-14T00:35:57.016Z,4.05
2023-04-14T00:38:23.963Z,8.68
2023-04-14T00:40:50.727Z,6.15
2023-04-14T00:43:20.430Z,4.82
2023-04-14T00:45:49.340Z,3.47
2023-04-14T00:48:17.457Z,7.65
2023-04-14T00:50:44.329Z,3.22
2023-04-14T00:53:13.105Z,2.03
2023-04-14T00:55:41.292Z,6.82
2023-04-14T00:58:08.307Z,3.05
2023-04-14T01:00:36.264Z,4.82
2023-04-14T01:03:03.563Z,6.57
2023-04-14T01:05:30.562Z,4.97
2023-04-14T01:07:57.740Z,3.92
2023-04-14T01:10:30.527Z,5.38
2023-04-14T01:13:06.390Z,4.25
2023-04-14T01:15:39.089Z,4.43
2023-04-14T01:18:35.935Z,6.18
2023-04-14T01:21:14.256Z,5.75
2023-04-14T01:24:07.668Z,5.30
2023-04-14T01:26:34.357Z,4.55
2023-04-14T01:29:19.886Z,5.05
2023-04-14T01:31:55.577Z,7.10
2023-04-14T01:34:43.357Z,3.33
2023-04-14T01:37:16.840Z,3.97
2023-04-14T01:39:48.462Z,3.40
2023-04-14T01:42:22.106Z,4.57
2023-04-14T01:44:54.808Z,4.18
2023-04-14T01:47:23.019Z,3.85
2023-04-14T01:49:53.532Z,7.03
2023-04-14T01:52:20.960Z,3.05
2023-04-14T01:54:51.166Z,4.88
2023-04-14T01:57:20.593Z,4.18
2023-04-14T01:59:50.313Z,5.30
2023-04-14T02:02:18.682Z,4.68
2023-04-14T02:04:46.629Z,3.67
2023-04-14T02:07:13.866Z,3.50
2023-04-14T02:09:43.282Z,2.55
2023-04-14T02:12:12.655Z,2.30
2023-04-14T02:14:41.889Z,4.78
2023-04-14T02:17:11.688Z,5.32
2023-04-14T02:19:38.960Z,4.78
2023-04-14T02:22:05.688Z,2.05
2023-04-14T02:24:32.568Z,4.65
2023-04-14T02:27:07.258Z,4.13
2023-04-14T02:29:36.197Z,4.50
2023-04-14T02:32:11.493Z,3.25
2023-04-14T02:35:03.665Z,5.38
2023-04-14T02:37:40.773Z,2.60
2023-04-14T02:40:24.792Z,6.00
2023-04-14T02:43:00.095Z,5.22
2023-04-14T02:45:31.329Z,3.03
2023-04-14T02:48:02.955Z,3.83
2023-04-14T02:50:31.661Z,3.60
2023-04-14T02:53:00.491Z,4.55
2023-04-14T02:55:28.448Z,5.00
2023-04-14T02:57:55.727Z,7.35
2023-04-14T03:00:23.747Z,5.88
2023-04-14T03:02:52.353Z,9.50
2023-04-14T03:05:20.711Z,4.65
2023-04-14T03:07:48.268Z,6.45
2023-04-14T03:10:15.194Z,6.82
2023-04-14T03:12:43.131Z,14.57
2023-04-14T03:15:10.678Z,3.08
2023-04-14T03:17:38.181Z,5.35
2023-04-14T03:20:05.668Z,4.80
2023-04-14T03:22:38.377Z,5.95
2023-04-14T03:25:05.368Z,7.47
2023-04-14T03:27:33.165Z,5.50
2023-04-14T03:30:07.112Z,4.47
2023-04-14T03:32:41.826Z,6.40
2023-04-14T03:35:12.577Z,12.50
2023-04-14T03:37:40.869Z,4.53
2023-04-14T03:40:13.765Z,5.30
2023-04-14T03:42:44.854Z,5.72
2023-04-14T03:45:12.158Z,3.97
2023-04-14T03:47:38.978Z,6.80
2023-04-14T03:50:09.493Z,4.68
2023-04-14T03:52:39.332Z,6.30
2023-04-14T03:55:08.998Z,5.57
2023-04-14T03:57:37.609Z,6.88
2023-04-14T04:00:08.513Z,8.23
2023-04-14T04:02:36.583Z,10.18
2023-04-14T04:05:05.171Z,7.45
2023-04-14T04:07:32.830Z,7.70
2023-04-14T04:10:00.155Z,8.10
2023-04-14T04:12:28.171Z,5.50
2023-04-14T04:14:54.791Z,8.43
2023-04-14T04:17:24.010Z,9.95
2023-04-14T04:19:51.752Z,12.80
2023-04-14T04:22:21.012Z,6.72
2023-04-14T04:24:48.788Z,7.13
2023-04-14T04:27:26.974Z,5.85
2023-04-14T04:29:55.090Z,6.97
2023-04-14T04:32:21.820Z,6.35
2023-04-14T04:34:49.603Z,6.30
2023-04-14T04:37:17.166Z,6.68
2023-04-14T04:39:43.931Z,6.05
2023-04-14T04:42:10.736Z,9.38
2023-04-14T04:44:37.403Z,10.52
2023-04-14T04:47:04.434Z,7.32
2023-04-14T04:49:31.064Z,6.50
2023-04-14T04:51:57.736Z,5.72
2023-04-14T04:54:24.309Z,6.35
2023-04-14T04:56:51.066Z,4.72
2023-04-14T04:59:17.700Z,6.75
2023-04-14T05:01:44.503Z,8.00
2023-04-14T05:04:11.931Z,7.13
2023-04-14T05:06:38.724Z,7.82
2023-04-14T05:09:05.565Z,5.93
2023-04-14T05:11:33.264Z,10.10
2023-04-14T05:14:00.683Z,6.90
2023-04-14T05:16:28.810Z,6.22
2023-04-14T05:18:56.259Z,11.95
2023-04-14T05:21:23.129Z,12.27
2023-04-14T05:23:49.868Z,8.85
2023-04-14T05:28:46.507Z,8.68
2023-04-14T05:31:13.182Z,10.68
2023-04-14T05:33:40.179Z,19.30
2023-04-14T05:36:07.402Z,13.52
2023-04-14T05:38:37.649Z,16.25
2023-04-14T05:41:04.386Z,11.65
2023-04-14T05:43:31.215Z,12.63
2023-04-14T05:45:58.590Z,10.43
2023-04-14T05:48:27.630Z,8.05
2023-04-14T05:50:54.331Z,9.15
2023-04-14T05:53:21.054Z,9.43
2023-04-14T05:55:48.849Z,6.10
2023-04-14T05:58:15.495Z,6.40
2023-04-14T06:00:42.134Z,11.82
2023-04-14T06:03:09.110Z,6.30
2023-04-14T06:05:35.921Z,7.80
2023-04-14T06:08:02.514Z,4.75
2023-04-14T06:10:29.292Z,4.95
2023-04-14T06:12:56.147Z,7.00
2023-04-14T06:15:27.018Z,7.25
2023-04-14T06:17:53.766Z,4.50
2023-04-14T06:20:21.833Z,5.53
2023-04-14T06:22:48.559Z,5.03
2023-04-14T06:25:15.305Z,5.07
2023-04-14T06:27:41.961Z,5.60
2023-04-14T06:30:09.119Z,3.20
2023-04-14T06:32:35.758Z,3.92
2023-04-14T06:35:05.103Z,8.00
2023-04-14T06:37:32.501Z,6.80
2023-04-14T06:39:59.214Z,6.13
2023-04-14T06:42:25.884Z,2.83
2023-04-14T06:44:52.804Z,9.95
2023-04-14T06:47:20.975Z,3.55
2023-04-14T06:49:47.975Z,3.38
2023-04-14T06:52:14.625Z,8.48
2023-04-14T06:54:42.245Z,4.07
2023-04-14T06:57:09.260Z,5.78
2023-04-14T06:59:36.768Z,5.43
2023-04-14T07:02:03.658Z,3.28
2023-04-14T07:04:30.699Z,4.95
2023-04-14T07:07:03.440Z,10.38
2023-04-14T07:09:30.405Z,6.45
2023-04-14T07:11:57.914Z,3.63
2023-04-14T07:14:24.954Z,4.05
2023-04-14T07:16:52.542Z,6.22
2023-04-14T07:19:19.775Z,3.95
2023-04-14T07:21:47.008Z,3.33
2023-04-14T07:24:15.495Z,5.82
2023-04-14T07:26:44.246Z,3.63
2023-04-14T07:29:10.902Z,5.15
2023-04-14T07:31:38.951Z,6.75
2023-04-14T07:34:06.323Z,8.15
2023-04-14T07:36:33.406Z,3.25
2023-04-14T07:39:00.288Z,5.00
2023-04-14T07:41:28.062Z,3.90
2023-04-14T07:43:55.825Z,4.28
2023-04-14T07:46:22.513Z,4.47
2023-04-14T07:48:49.256Z,5.97
2023-04-14T07:51:16.199Z,4.65
2023-04-14T07:53:45.150Z,3.05
2023-04-14T07:56:13.308Z,3.83
2023-04-14T07:58:40.223Z,3.00
2023-04-14T08:01:07.614Z,3.13
2023-04-14T08:03:36.536Z,11.90
2023-04-14T08:06:05.790Z,3.80
2023-04-14T08:08:33.156Z,6.18
2023-04-14T08:11:00.036Z,3.88
2023-04-14T08:13:26.902Z,4.03
2023-04-14T08:15:53.612Z,4.30
2023-04-14T08:18:20.631Z,4.88
2023-04-14T08:20:47.306Z,2.42
2023-04-14T08:23:14.089Z,3.00
2023-04-14T08:25:41.066Z,7.90
2023-04-14T08:28:07.794Z,7.25
2023-04-14T08:30:34.671Z,6.55
2023-04-14T08:33:01.422Z,4.03
2023-04-14T08:35:39.149Z,4.15
2023-04-14T08:38:08.467Z,4.82
2023-04-14T08:40:43.264Z,2.33
2023-04-14T08:43:13.195Z,5.05
2023-04-14T08:48:09.648Z,4.55
2023-04-14T08:51:06.692Z,4.57
2023-04-14T08:53:33.684Z,3.08
2023-04-14T08:56:03.694Z,11.35
2023-04-14T08:58:32.367Z,8.25
2023-04-14T09:00:59.661Z,3.72
2023-04-14T09:03:27.139Z,8.95
2023-04-14T09:05:54.494Z,6.93
2023-04-14T09:08:21.395Z,7.68
2023-04-14T09:10:48.782Z,12.32
2023-04-14T09:13:17.086Z,12.55
2023-04-14T09:15:44.000Z,11.40
2023-04-14T09:18:12.066Z,11.55
2023-04-14T09:20:40.722Z,9.30
2023-04-14T09:23:10.293Z,8.52
2023-04-14T09:25:41.692Z,5.22
2023-04-14T09:28:08.718Z,11.47
2023-04-14T09:30:35.660Z,13.35
2023-04-14T09:33:06.967Z,16.17
2023-04-14T09:35:46.141Z,5.57
2023-04-14T09:38:13.269Z,6.68
2023-04-14T09:40:42.614Z,9.13
2023-04-14T09:43:13.018Z,10.68
2023-04-14T09:45:45.992Z,4.63
2023-04-14T09:48:15.709Z,12.18
2023-04-14T09:51:02.060Z,16.48
2023-04-14T09:53:36.512Z,5.32
2023-04-14T09:56:09.751Z,9.23
2023-04-14T09:58:44.808Z,5.65
2023-04-14T10:01:16.526Z,5.25
2023-04-14T10:03:45.010Z,3.50
2023-04-14T10:06:22.800Z,4.22
2023-04-14T10:08:51.690Z,14.32
2023-04-14T10:11:19.514Z,9.75
2023-04-14T10:13:48.034Z,12.15
2023-04-14T10:16:15.763Z,10.57
2023-04-14T10:18:42.986Z,24.45
2023-04-14T10:21:10.433Z,7.85
2023-04-14T10:23:44.203Z,11.48
2023-04-14T10:26:12.694Z,7.95
2023-04-14T10:28:42.251Z,11.73
2023-04-14T10:31:14.167Z,5.03
2023-04-14T10:36:09.650Z,5.78
2023-04-14T10:38:44.055Z,8.23
2023-04-14T10:41:11.751Z,2.10
2023-04-14T10:43:39.733Z,3.47
2023-04-14T10:46:09.704Z,2.47
2023-04-14T10:48:40.388Z,0.40
2023-04-14T10:51:10.593Z,0.10
2023-04-14T10:53:47.680Z,0.20
2023-04-14T10:56:14.401Z,0.32
2023-04-14T10:58:41.084Z,0.30
2023-04-14T11:01:41.588Z,0.30
2023-04-14T11:04:18.380Z,0.70
2023-04-14T11:06:54.506Z,0.90
2023-04-14T11:09:33.929Z,0.40
2023-04-14T11:12:26.051Z,0.32
2023-04-14T11:14:57.142Z,0.17
2023-04-14T11:17:24.008Z,0.10
2023-04-14T11:19:55.264Z,0.35
2023-04-14T11:22:40.113Z,0.20
2023-04-14T11:25:08.205Z,0.30
2023-04-14T11:27:35.832Z,3.03
2023-04-14T11:30:02.653Z,0.47
2023-04-14T11:32:29.549Z,0.05
2023-04-14T11:35:06.876Z,0.17
2023-04-14T11:37:36.049Z,0.63
2023-04-14T11:40:05.603Z,2.58
2023-04-14T11:42:33.877Z,0.25
2023-04-14T11:45:02.929Z,1.08
2023-04-14T11:47:29.796Z,0.05
2023-04-14T11:49:56.410Z,0.85
2023-04-14T11:52:23.058Z,0.47
2023-04-14T11:54:50.004Z,0.10
2023-04-14T11:57:17.596Z,0.15
2023-04-14T11:59:46.075Z,1.55
2023-04-14T12:02:20.945Z,1.15
2023-04-14T12:04:50.568Z,2.42
2023-04-14T12:07:19.512Z,0.20
2023-04-14T12:09:49.035Z,2.65
2023-04-14T12:12:17.549Z,1.80
2023-04-14T12:14:46.202Z,0.93
2023-04-14T12:17:15.316Z,0.30
2023-04-14T12:19:42.604Z,0.40
2023-04-14T12:22:09.760Z,0.80
2023-04-14T12:24:42.519Z,3.40
2023-04-14T12:27:10.204Z,0.10
2023-04-14T12:29:37.394Z,1.35
2023-04-14T12:32:12.098Z,0.35
2023-04-14T12:34:38.896Z,1.05
2023-04-14T12:37:09.852Z,0.63
2023-04-14T12:39:54.334Z,1.27
2023-04-14T12:42:21.181Z,0.20
2023-04-14T12:45:00.469Z,0.47
2023-04-14T12:47:31.630Z,0.30
2023-04-14T12:50:00.393Z,0.15
2023-04-14T12:52:38.254Z,0.13
2023-04-14T12:55:06.786Z,0.10
2023-04-14T12:57:34.697Z,0.52
2023-04-14T13:00:02.174Z,0.10
2023-04-14T13:02:30.205Z,0.68
2023-04-14T13:04:57.155Z,0.47
2023-04-14T13:07:24.125Z,5.13
2023-04-14T13:09:52.163Z,1.10
2023-04-14T13:12:18.890Z,0.10
2023-04-14T13:14:45.760Z,1.10
2023-04-14T13:17:12.805Z,0.30
2023-04-14T13:19:39.522Z,0.43
2023-04-14T13:22:06.283Z,2.05
2023-04-14T13:24:32.963Z,0.65
2023-04-14T13:26:59.674Z,1.95
2023-04-14T13:29:26.617Z,1.10
2023-04-14T13:31:53.244Z,0.65
2023-04-14T13:34:20.039Z,0.30
2023-04-14T13:36:46.878Z,0.10
2023-04-14T13:39:14.070Z,0.65
2023-04-14T13:41:40.732Z,1.10
2023-04-14T13:44:07.310Z,0.52
2023-04-14T13:46:40.522Z,0.80
2023-04-14T13:49:07.853Z,1.08
2023-04-14T13:51:34.578Z,0.55
2023-04-14T13:54:01.591Z,1.85
2023-04-14T13:56:28.305Z,0.95
2023-04-14T13:58:55.593Z,2.17
2023-04-14T14:01:22.590Z,0.60
2023-04-14T14:03:51.326Z,0.70
2023-04-14T14:06:19.172Z,0.10
2023-04-14T14:08:46.254Z,3.30
2023-04-14T14:11:14.145Z,0.43
2023-04-14T14:13:41.093Z,0.43
2023-04-14T14:16:09.363Z,0.65
2023-04-14T14:18:36.453Z,1.33
2023-04-14T14:21:04.254Z,0.40
2023-04-14T14:23:31.190Z,0.10
2023-04-14T14:25:57.800Z,0.28
2023-04-14T14:28:24.382Z,1.23
2023-04-14T14:30:51.216Z,0.63
2023-04-14T14:33:17.874Z,2.33
2023-04-14T14:35:44.510Z,0.63
2023-04-14T14:38:11.156Z,1.02
2023-04-14T14:40:38.119Z,0.47
2023-04-14T14:43:05.241Z,0.17
2023-04-14T14:45:32.823Z,1.58
2023-04-14T14:48:00.023Z,0.95
2023-04-14T14:50:26.726Z,0.73
2023-04-14T14:52:56.096Z,4.03
2023-04-14T14:55:22.890Z,2.08
2023-04-14T14:57:51.080Z,6.70
2023-04-14T15:00:18.462Z,3.00
2023-04-14T15:02:45.415Z,2.63
2023-04-14T15:05:12.214Z,1.63
2023-04-14T15:07:39.664Z,3.75
2023-04-14T15:10:07.061Z,0.60
2023-04-14T15:12:33.733Z,2.70
2023-04-14T15:15:00.614Z,1.10
2023-04-14T15:17:27.332Z,1.80
2023-04-14T15:19:53.971Z,1.52
2023-04-14T15:22:20.921Z,1.08
2023-04-14T15:24:47.528Z,0.65
2023-04-14T15:27:14.157Z,0.52
2023-04-14T15:29:40.858Z,1.20
2023-04-14T15:32:07.510Z,0.80
2023-04-14T15:34:34.185Z,1.92
2023-04-14T15:37:01.958Z,1.23
2023-04-14T15:39:28.829Z,0.93
2023-04-14T15:41:55.852Z,2.85
2023-04-14T15:44:22.544Z,1.85
2023-04-14T15:46:49.818Z,3.25
2023-04-14T15:49:16.389Z,2.17
2023-04-14T15:51:42.982Z,3.10
2023-04-14T15:54:09.575Z,1.83
2023-04-14T15:56:37.480Z,2.22
2023-04-14T15:59:04.168Z,2.08
2023-04-14T16:01:30.926Z,1.65
2023-04-14T16:03:57.760Z,0.70
2023-04-14T16:06:24.519Z,0.95
2023-04-14T16:08:51.445Z,2.20
2023-04-14T16:11:19.339Z,2.78
2023-04-14T16:13:46.138Z,2.20
2023-04-14T16:16:13.819Z,1.33
2023-04-14T16:18:40.474Z,2.22
2023-04-14T16:21:07.044Z,4.28
2023-04-14T16:23:33.725Z,1.30
2023-04-14T16:26:00.988Z,1.48
2023-04-14T16:28:28.382Z,2.63
2023-04-14T16:30:55.390Z,1.38
2023-04-14T16:33:22.055Z,3.17
2023-04-14T16:35:48.716Z,0.80
2023-04-14T16:38:15.300Z,1.27
2023-04-14T16:40:42.765Z,3.85
2023-04-14T16:43:09.710Z,0.93
2023-04-14T16:45:36.488Z,1.33
2023-04-14T16:48:03.203Z,4.03
2023-04-14T16:50:31.849Z,2.63
2023-04-14T16:52:58.521Z,1.05
2023-04-14T16:55:25.136Z,2.10
2023-04-14T16:57:52.117Z,1.38
2023-04-14T17:00:19.025Z,0.82
2023-04-14T17:02:45.903Z,1.48
2023-04-14T17:05:16.001Z,3.88
2023-04-14T17:07:43.174Z,2.90
2023-04-14T17:10:10.661Z,3.08
2023-04-14T17:12:37.389Z,1.95
2023-04-14T17:15:04.671Z,0.88
2023-04-14T17:17:32.009Z,3.63
2023-04-14T17:19:59.586Z,2.42
2023-04-14T17:22:27.611Z,1.98
2023-04-14T17:24:54.780Z,3.83
2023-04-14T17:27:21.453Z,3.22
2023-04-14T17:29:48.340Z,1.73
2023-04-14T17:32:15.014Z,2.22
2023-04-14T17:34:41.757Z,2.08
2023-04-14T17:37:09.098Z,2.17
2023-04-14T17:39:35.812Z,2.15
2023-04-14T17:42:03.513Z,4.82
2023-04-14T17:44:35.062Z,2.95
2023-04-14T17:47:03.474Z,1.40
2023-04-14T17:49:30.559Z,1.38
2023-04-14T17:51:57.847Z,2.53
2023-04-14T17:54:25.225Z,1.00
2023-04-14T17:56:52.690Z,1.50
2023-04-14T17:59:20.443Z,1.13
2023-04-14T18:01:47.550Z,1.20
2023-04-14T18:04:14.563Z,1.55
2023-04-14T18:06:41.738Z,1.77
2023-04-14T18:09:09.404Z,0.82
2023-04-14T18:11:36.649Z,2.17
2023-04-14T18:14:03.677Z,0.90
2023-04-14T18:16:31.255Z,2.30
2023-04-14T18:18:57.969Z,4.38
2023-04-14T18:21:24.600Z,0.65
2023-04-14T18:28:50.313Z,1.48
2023-04-14T18:31:16.928Z,0.80
2023-04-14T18:33:43.731Z,0.63
2023-04-14T18:36:10.448Z,3.63
2023-04-14T18:38:37.490Z,1.85
2023-04-14T18:41:05.380Z,1.17
2023-04-14T18:43:33.259Z,0.95
2023-04-14T18:46:00.410Z,1.90
2023-04-14T18:48:27.796Z,1.35
2023-04-14T18:51:00.324Z,0.82
2023-04-14T18:53:27.520Z,3.90
2023-04-14T18:55:54.333Z,1.90
2023-04-14T18:58:20.916Z,1.63
2023-04-14T19:00:47.685Z,2.42
2023-04-14T19:03:15.499Z,2.92
2023-04-14T19:05:42.298Z,4.60
2023-04-14T19:08:08.891Z,1.00
2023-04-14T19:10:36.495Z,0.93
2023-04-14T19:13:03.416Z,1.75
2023-04-14T19:15:30.042Z,1.58
2023-04-14T19:17:56.726Z,0.47
2023-04-14T19:20:24.152Z,0.93
2023-04-14T19:22:50.962Z,0.95
2023-04-14T19:25:17.748Z,1.17
2023-04-14T19:27:47.254Z,2.42
2023-04-14T19:30:14.004Z,0.98
2023-04-14T19:32:48.128Z,0.95
2023-04-14T19:35:15.385Z,0.77
2023-04-14T19:37:42.444Z,1.27
2023-04-14T19:40:11.030Z,2.10
2023-04-14T19:42:37.873Z,0.93
2023-04-14T19:45:05.815Z,0.50
2023-04-14T19:47:32.940Z,4.82
2023-04-14T19:50:00.372Z,3.28
2023-04-14T19:52:27.230Z,1.20
2023-04-14T19:54:55.190Z,1.40
2023-04-14T19:57:22.574Z,4.72
2023-04-14T19:59:49.290Z,2.40
2023-04-14T20:02:16.439Z,3.55
2023-04-14T20:04:44.883Z,4.38
2023-04-14T20:07:11.722Z,9.40
2023-04-14T20:09:44.899Z,14.43
2023-04-14T20:12:11.961Z,21.75
2023-04-14T20:14:39.339Z,15.73
2023-04-14T20:17:06.570Z,11.10
2023-04-14T20:19:33.417Z,12.88
2023-04-14T20:22:00.344Z,8.23
2023-04-14T20:24:27.174Z,14.40
2023-04-14T20:26:53.888Z,7.20
2023-04-14T20:29:21.422Z,10.15
2023-04-14T20:31:49.160Z,11.90
2023-04-14T20:34:16.057Z,9.98
2023-04-14T20:36:45.094Z,4.70
2023-04-14T20:39:12.016Z,7.55
2023-04-14T20:41:38.880Z,8.13
2023-04-14T20:44:05.542Z,15.52
2023-04-14T20:46:32.832Z,12.27
2023-04-14T20:49:01.036Z,9.32
2023-04-14T20:51:28.095Z,7.63
2023-04-14T20:53:55.694Z,11.35
2023-04-14T20:56:22.838Z,9.13
2023-04-14T20:58:49.474Z,19.83
2023-04-14T21:01:16.670Z,8.02
2023-04-14T21:03:43.918Z,7.80
2023-04-14T21:06:11.216Z,8.65
2023-04-14T21:08:39.510Z,5.90
2023-04-14T21:11:16.728Z,6.75
2023-04-14T21:15:28.685Z,9.02
2023-04-14T21:16:35.216Z,7.22
2023-04-14T21:19:03.934Z,9.73
2023-04-14T21:21:31.957Z,4.70
2023-04-14T21:23:59.063Z,15.75
2023-04-14T21:26:27.033Z,9.45
2023-04-14T21:28:53.796Z,9.20
2023-04-14T21:31:20.617Z,14.18
2023-04-14T21:33:47.379Z,15.63
2023-04-14T21:36:14.665Z,8.85
2023-04-14T21:38:41.322Z,13.60
2023-04-14T21:41:08.188Z,14.38
2023-04-14T21:43:35.417Z,5.35
2023-04-14T21:46:02.260Z,10.90
2023-04-14T21:48:29.053Z,12.10
2023-04-14T21:50:55.649Z,11.65
2023-04-14T21:53:22.754Z,9.82
2023-04-14T21:56:03.426Z,7.88
2023-04-14T21:58:36.732Z,10.70
2023-04-14T22:01:03.602Z,9.82
2023-04-14T22:03:30.636Z,9.02
2023-04-14T22:05:57.428Z,11.13
2023-04-14T22:08:24.123Z,9.55
2023-04-14T22:10:50.779Z,10.25
2023-04-14T22:13:17.786Z,12.75
2023-04-14T22:15:44.788Z,13.25
2023-04-14T22:18:11.636Z,13.88
2023-04-14T22:20:39.258Z,13.43
2023-04-14T22:23:06.063Z,17.23
2023-04-14T22:25:33.245Z,7.82
2023-04-14T22:27:59.814Z,9.05
2023-04-14T22:30:26.441Z,13.00
2023-04-14T22:32:53.177Z,7.03
2023-04-14T22:35:19.995Z,15.57
2023-04-14T22:37:46.945Z,11.43
2023-04-14T22:40:13.898Z,11.82
2023-04-14T22:42:40.741Z,8.65
2023-04-14T22:45:08.207Z,8.85
2023-04-14T22:47:34.920Z,10.82
2023-04-14T22:50:02.239Z,9.05
2023-04-14T22:52:28.958Z,11.50
2023-04-14T22:54:55.561Z,9.10
2023-04-14T22:57:22.591Z,9.43
2023-04-14T22:59:49.220Z,7.50
2023-04-14T23:02:16.691Z,5.88
2023-04-14T23:04:43.552Z,9.00
2023-04-14T23:07:10.577Z,7.70
2023-04-14T23:09:37.173Z,7.20
2023-04-14T23:12:04.598Z,6.25
2023-04-14T23:14:32.396Z,6.90
2023-04-14T23:17:01.846Z,11.23
2023-04-14T23:19:28.413Z,7.53
2023-04-14T23:21:54.996Z,6.95
2023-04-14T23:24:22.417Z,10.60
2023-04-14T23:26:49.100Z,8.63
2023-04-14T23:29:15.802Z,8.20
2023-04-14T23:31:42.514Z,8.15
2023-04-14T23:34:11.160Z,8.90
2023-04-14T23:36:37.906Z,7.95
2023-04-14T23:39:04.782Z,4.88
2023-04-14T23:41:31.530Z,5.72
2023-04-14T23:43:58.266Z,4.85
2023-04-14T23:46:25.014Z,8.07
2023-04-14T23:48:58.902Z,8.90
2023-04-14T23:51:29.555Z,6.35
2023-04-14T23:53:59.438Z,5.18
2023-04-14T23:56:26.410Z,6.13
2023-04-14T23:58:53.249Z,5.82
